Time;durP1;ratioP1;P1;durP2;ratioP2;P2;SDS_P1;SDS_P2;PMS_P1;PMS_P2;Temp;Humidity;BMP_temperature;BMP_pressure;BME280_temperature;BME280_humidity;BME280_pressure;Samples;Min_cycle;Max_cycle;Signal;HPM_P1;HPM_P2
2022/02/07 00:02:03;;;;;;;2.23;0.60;;;2.30;96.30;;;;;;5054878;28;20863;-80
2022/02/07 00:04:34;;;;;;;0.90;0.60;;;2.30;96.30;;;;;;5072630;28;20976;-79
2022/02/07 00:07:00;;;;;;;0.80;0.50;;;2.30;96.30;;;;;;5054976;28;20405;-80
2022/02/07 00:09:25;;;;;;;2.23;0.67;;;2.20;96.30;;;;;;5072753;28;20416;-78
2022/02/07 00:11:51;;;;;;;1.27;0.70;;;2.20;96.30;;;;;;5072498;28;20264;-80
2022/02/07 00:14:16;;;;;;;0.73;0.40;;;2.20;96.30;;;;;;5054482;28;20183;-79
2022/02/07 00:16:44;;;;;;;0.80;0.50;;;2.20;96.30;;;;;;5054500;28;20626;-79
2022/02/07 00:19:16;;;;;;;0.97;0.60;;;2.20;96.30;;;;;;5054626;28;20270;-80
2022/02/07 00:21:41;;;;;;;2.80;0.70;;;2.20;96.30;;;;;;5054487;28;20468;-80
2022/02/07 00:24:07;;;;;;;0.80;0.50;;;2.30;96.30;;;;;;5054575;28;20444;-80
2022/02/07 00:26:33;;;;;;;0.80;0.50;;;;;;;;;;5054370;28;20771;-80
2022/02/07 00:28:58;;;;;;;0.90;0.50;;;2.30;96.30;;;;;;5054431;28;20275;-80
2022/02/07 00:31:24;;;;;;;1.43;0.60;;;2.30;96.30;;;;;;5054283;28;20449;-79
2022/02/07 00:33:49;;;;;;;0.80;0.60;;;2.20;96.30;;;;;;5054533;28;20179;-79
2022/02/07 00:36:18;;;;;;;0.90;0.57;;;2.20;96.30;;;;;;5072042;28;20197;-79
2022/02/07 00:38:46;;;;;;;0.80;0.50;;;2.20;96.30;;;;;;5072226;28;20178;-79
2022/02/07 00:41:17;;;;;;;0.90;0.60;;;;;;;;;;5072161;28;20931;-81
2022/02/07 00:43:46;;;;;;;1.83;0.80;;;2.20;96.30;;;;;;5072238;28;20764;-80
2022/02/07 00:46:13;;;;;;;0.90;0.50;;;2.20;96.30;;;;;;5071399;28;20448;-79
2022/02/07 00:48:40;;;;;;;0.90;0.60;;;2.20;96.30;;;;;;5054246;28;20802;-80
2022/02/07 00:51:06;;;;;;;1.00;0.60;;;2.10;96.30;;;;;;5054235;28;20464;-79
2022/02/07 00:53:33;;;;;;;1.33;0.70;;;2.10;96.30;;;;;;5054430;28;20436;-79
2022/02/07 00:56:00;;;;;;;1.57;0.80;;;2.10;96.30;;;;;;5054328;28;20409;-80
2022/02/07 00:58:26;;;;;;;1.63;0.50;;;2.10;96.30;;;;;;5072745;28;20409;-81
2022/02/07 05:00:49;;;;;;;3.03;0.70;;;;;;;;;;5931961;23;20754;-82
2022/02/07 05:03:18;;;;;;;3.13;0.90;;;-0.30;96.30;;;;;;5037295;28;20440;-80
2022/02/07 05:16:08;;;;;;;2.87;0.70;;;-0.30;96.30;;;;;;5052911;28;20406;-77
2022/02/07 05:18:34;;;;;;;5.87;0.80;;;-0.30;96.30;;;;;;5053155;28;20422;-77
2022/02/07 05:21:00;;;;;;;4.30;0.60;;;-0.30;96.30;;;;;;5034522;28;20761;-78
2022/02/07 05:23:25;;;;;;;3.83;0.83;;;-0.30;96.30;;;;;;5034565;28;20189;-78
2022/02/07 05:25:51;;;;;;;3.33;0.60;;;;;;;;;;5033911;28;20190;-80
2022/02/07 05:28:17;;;;;;;2.00;0.70;;;-0.40;96.30;;;;;;5051992;28;20180;-78
2022/02/07 05:30:43;;;;;;;3.43;0.80;;;-0.30;96.30;;;;;;5033945;28;20425;-76
2022/02/07 05:33:08;;;;;;;2.63;0.80;;;-0.40;96.30;;;;;;5053284;28;20243;-76
2022/02/07 05:35:34;;;;;;;4.27;1.30;;;-0.30;96.30;;;;;;5055193;28;20168;-78
2022/02/07 05:38:00;;;;;;;2.23;0.60;;;;;;;;;;5037897;28;20180;-80
2022/02/07 05:40:45;;;;;;;2.00;0.83;;;-0.40;96.30;;;;;;5055634;28;20175;-80
2022/02/07 05:43:14;;;;;;;7.60;0.83;;;;;;;;;;5039033;28;20425;-80
2022/02/07 05:45:39;;;;;;;2.30;0.80;;;-0.30;96.30;;;;;;5055131;28;20414;-80
2022/02/07 05:48:05;;;;;;;5.23;0.90;;;-0.30;96.30;;;;;;5038906;28;20441;-80
2022/02/07 05:50:31;;;;;;;3.10;1.77;;;-0.30;96.30;;;;;;5039206;28;20188;-80
2022/02/07 05:52:58;;;;;;;4.37;0.90;;;-0.20;96.30;;;;;;5039234;28;20704;-80
2022/02/07 05:55:24;;;;;;;4.60;0.90;;;-0.30;96.30;;;;;;5039209;28;20167;-80
2022/02/07 05:57:49;;;;;;;7.73;1.33;;;-0.30;96.30;;;;;;5033885;28;20789;-80
2022/02/07 06:00:15;;;;;;;1.83;0.70;;;-0.30;96.30;;;;;;5019157;28;20160;-80
2022/02/07 06:02:40;;;;;;;3.10;0.80;;;-0.30;96.30;;;;;;5033649;28;20163;-79
2022/02/07 06:05:06;;;;;;;1.30;0.70;;;-0.30;96.30;;;;;;5056226;28;20171;-80
2022/02/07 06:07:32;;;;;;;3.10;0.80;;;-0.20;96.30;;;;;;5039420;28;20736;-80
2022/02/07 06:09:57;;;;;;;4.57;0.73;;;-0.20;96.30;;;;;;5039374;28;20176;-80
2022/02/07 06:12:23;;;;;;;1.33;0.60;;;;;;;;;;5057457;28;20654;-80
2022/02/07 06:14:49;;;;;;;5.77;0.67;;;-0.20;96.30;;;;;;5056026;28;20183;-79
2022/02/07 06:17:15;;;;;;;2.17;0.60;;;;;;;;;;5038614;28;20564;-80
2022/02/07 06:19:41;;;;;;;6.23;1.33;;;-0.20;96.30;;;;;;5056763;28;20229;-80
2022/02/07 06:22:07;;;;;;;2.03;0.90;;;-0.20;96.30;;;;;;5039171;28;20192;-80
2022/02/07 06:24:32;;;;;;;3.63;0.60;;;-0.20;96.30;;;;;;5038196;28;20755;-80
2022/02/07 06:26:58;;;;;;;4.87;0.70;;;-0.20;96.30;;;;;;5057114;28;20237;-80
2022/02/07 06:29:24;;;;;;;5.70;0.73;;;;;;;;;;5039015;28;20180;-80
2022/02/07 06:31:50;;;;;;;3.90;0.73;;;-0.20;96.30;;;;;;5038813;28;20735;-79
2022/02/07 06:34:15;;;;;;;0.80;0.50;;;-0.20;96.30;;;;;;5038283;28;20639;-80
2022/02/07 06:36:41;;;;;;;4.13;0.90;;;;;;;;;;5056258;28;21004;-79
2022/02/07 06:39:07;;;;;;;3.07;0.90;;;-0.20;96.30;;;;;;5056199;28;20178;-80
2022/02/07 06:41:33;;;;;;;2.20;1.10;;;-0.10;96.30;;;;;;5057394;28;20980;-80
2022/02/07 06:43:59;;;;;;;2.67;0.90;;;;;;;;;;5038189;28;20210;-80
2022/02/07 06:46:24;;;;;;;2.63;0.70;;;-0.10;96.30;;;;;;5041084;28;20406;-80
2022/02/07 06:48:50;;;;;;;2.50;0.70;;;-0.10;96.30;;;;;;5041685;28;20418;-80
2022/02/07 06:51:16;;;;;;;2.93;0.93;;;;;;;;;;5041238;28;20212;-80
2022/02/07 06:53:41;;;;;;;1.20;0.70;;;-0.10;96.30;;;;;;5020609;28;20168;-80
2022/02/07 06:56:07;;;;;;;3.23;0.73;;;-0.10;96.30;;;;;;5039034;28;20176;-81
2022/02/07 06:58:32;;;;;;;2.00;0.70;;;-0.10;96.30;;;;;;5018404;28;20203;-80
2022/02/07 07:01:00;;;;;;;3.60;0.73;;;;;;;;;;5019911;28;20219;-80
2022/02/07 07:03:25;;;;;;;1.83;0.93;;;0.00;96.30;;;;;;5024805;28;20184;-80
2022/02/07 07:05:52;;;;;;;1.90;0.70;;;0.00;96.30;;;;;;5027671;28;20470;-81
2022/02/07 07:08:18;;;;;;;4.93;1.00;;;0.00;96.30;;;;;;5022498;28;20616;-80
2022/02/07 07:10:45;;;;;;;11.07;1.10;;;;;;;;;;5036944;28;20490;-80
2022/02/07 07:13:14;;;;;;;4.50;0.97;;;0.00;96.30;;;;;;5019290;28;20179;-81
2022/02/07 07:16:11;;;;;;;1.60;0.77;;;0.10;96.30;;;;;;5037372;28;20410;-80
2022/02/07 07:18:28;;;;;;;2.03;0.70;;;0.10;96.30;;;;;;5044693;28;20419;-80
2022/02/07 07:20:54;;;;;;;3.77;1.10;;;0.10;96.30;;;;;;5028121;28;20469;-80
2022/02/07 07:23:20;;;;;;;2.70;0.70;;;0.10;96.30;;;;;;5039793;28;20180;-81
2022/02/07 07:25:46;;;;;;;5.63;0.90;;;0.10;96.30;;;;;;5015686;28;20223;-81
2022/02/07 07:28:14;;;;;;;2.23;0.67;;;0.00;96.30;;;;;;5015452;28;20419;-81
2022/02/07 07:30:46;;;;;;;2.07;0.80;;;0.10;96.30;;;;;;5033550;28;20463;-81
2022/02/07 07:33:17;;;;;;;1.97;0.70;;;;;;;;;;5015620;28;20832;-80
2022/02/07 07:35:42;;;;;;;1.13;0.70;;;0.10;96.30;;;;;;5021427;28;20493;-81
2022/02/07 07:38:08;;;;;;;6.13;1.50;;;0.10;96.30;;;;;;5035012;28;20498;-81
2022/02/07 07:40:34;;;;;;;2.23;1.40;;;0.20;96.30;;;;;;5052946;28;20214;-81
2022/02/07 07:43:00;;;;;;;3.20;0.73;;;;;;;;;;5035340;28;20264;-81
2022/02/07 07:45:31;;;;;;;2.20;0.80;;;0.10;96.30;;;;;;5034464;28;20168;-81
2022/02/07 07:48:01;;;;;;;2.50;1.83;;;0.10;96.30;;;;;;5036670;28;20428;-78
2022/02/07 08:03:44;;;;;;;3.20;1.00;;;0.00;96.30;;;;;;5053365;28;20394;-82
2022/02/07 08:06:17;;;;;;;0.90;0.63;;;-0.10;96.30;;;;;;5034651;28;20886;-82
2022/02/07 08:11:14;;;;;;;1.63;0.60;;;-0.10;96.30;;;;;;5052771;28;20460;-82
2022/02/07 08:13:43;;;;;;;1.40;0.60;;;-0.20;96.30;;;;;;5034838;28;20983;-82
2022/02/07 08:16:10;;;;;;;3.70;0.53;;;-0.10;96.30;;;;;;5033987;28;20414;-81
2022/02/07 08:18:36;;;;;;;0.80;0.50;;;-0.10;96.30;;;;;;5034699;28;20497;-82
2022/02/07 08:21:03;;;;;;;0.80;0.50;;;-0.10;96.30;;;;;;5034796;28;20576;-82
2022/02/07 08:23:28;;;;;;;0.80;0.50;;;-0.10;96.30;;;;;;5034906;28;20418;-82
2022/02/07 08:25:57;;;;;;;0.90;0.50;;;;;;;;;;5034377;28;20418;-79
2022/02/07 08:28:22;;;;;;;0.93;0.60;;;0.00;96.30;;;;;;5034011;28;20183;-78
2022/02/07 08:30:48;;;;;;;0.80;0.60;;;0.00;96.30;;;;;;5034147;28;20461;-79
2022/02/07 08:33:14;;;;;;;0.93;0.70;;;-0.10;96.30;;;;;;5051979;28;20171;-79
2022/02/07 08:35:40;;;;;;;1.13;0.60;;;-0.10;96.30;;;;;;5051483;28;20237;-79
2022/02/07 08:38:05;;;;;;;1.73;0.60;;;;;;;;;;5051933;28;20414;-79
2022/02/07 08:40:33;;;;;;;1.33;0.50;;;0.00;96.30;;;;;;5050700;28;20202;-79
2022/02/07 08:42:59;;;;;;;0.97;0.50;;;0.10;96.30;;;;;;5034084;28;20631;-78
2022/02/07 08:45:24;;;;;;;1.57;0.53;;;0.10;96.30;;;;;;5051410;28;20410;-78
2022/02/07 08:47:50;;;;;;;0.80;0.53;;;0.20;96.30;;;;;;5053559;28;20194;-78
2022/02/07 08:50:16;;;;;;;0.90;0.60;;;0.20;96.30;;;;;;5036760;28;20191;-79
2022/02/07 08:52:47;;;;;;;1.40;0.60;;;;;;;;;;5053925;28;20231;-82
2022/02/07 08:55:21;;;;;;;1.93;1.00;;;0.10;96.30;;;;;;5053522;28;20154;-76
2022/02/07 08:57:53;;;;;;;1.30;0.93;;;0.10;96.30;;;;;;5036064;28;20415;-78
2022/02/07 09:00:24;;;;;;;1.70;0.83;;;0.00;96.30;;;;;;5052971;28;20400;-79
2022/02/07 09:08:09;;;;;;;1.57;1.10;;;0.10;96.30;;;;;;5053266;28;20183;-77
2022/02/07 09:10:35;;;;;;;7.97;1.10;;;0.10;96.30;;;;;;5053152;28;20522;-79
2022/02/07 09:13:00;;;;;;;1.27;0.70;;;0.10;96.30;;;;;;5053221;28;20524;-76
2022/02/07 09:15:33;;;;;;;5.20;0.90;;;0.20;96.30;;;;;;5052716;28;20654;-76
2022/02/07 09:18:05;;;;;;;4.50;0.93;;;0.30;96.30;;;;;;5053384;28;20159;-77
2022/02/07 09:20:31;;;;;;;9.27;1.70;;;0.30;96.30;;;;;;5052650;28;20500;-76
2022/02/07 09:22:57;;;;;;;2.53;1.30;;;0.40;96.30;;;;;;5053502;28;20402;-76
2022/02/07 09:25:23;;;;;;;1.60;0.93;;;0.50;96.30;;;;;;5034402;28;20932;-77
2022/02/07 09:27:48;;;;;;;7.07;1.20;;;0.60;96.30;;;;;;5052712;28;20443;-76
2022/02/07 09:30:14;;;;;;;3.33;1.37;;;0.70;96.30;;;;;;5034043;28;20175;-76
2022/02/07 09:32:39;;;;;;;6.10;1.70;;;0.90;96.30;;;;;;5034127;28;20734;-77
2022/02/07 09:35:05;;;;;;;6.67;1.80;;;0.90;96.30;;;;;;5033816;28;20176;-79
2022/02/07 09:37:31;;;;;;;6.27;1.67;;;0.90;96.30;;;;;;5051893;28;20183;-75
2022/02/07 09:39:56;;;;;;;4.80;1.87;;;1.00;96.30;;;;;;5033784;28;20171;-76
2022/02/07 09:42:24;;;;;;;5.87;1.27;;;1.20;96.30;;;;;;5033559;28;20199;-77
2022/02/07 09:44:55;;;;;;;3.13;1.33;;;1.20;96.30;;;;;;5050622;28;20182;-80
2022/02/07 09:47:23;;;;;;;4.40;1.40;;;1.30;96.30;;;;;;5033435;28;20411;-76
2022/02/07 09:49:48;;;;;;;3.67;1.23;;;1.40;96.30;;;;;;5033448;28;20786;-75
2022/02/07 09:52:14;;;;;;;5.57;1.30;;;1.40;96.30;;;;;;5051053;28;20567;-77
2022/02/07 09:54:40;;;;;;;4.50;1.50;;;1.20;96.30;;;;;;5050767;28;20203;-77
2022/02/07 09:57:07;;;;;;;19.40;2.17;;;1.30;96.30;;;;;;5033304;28;20184;-74
2022/02/07 09:59:33;;;;;;;6.23;1.20;;;1.40;96.30;;;;;;5050979;28;20475;-74
2022/02/07 10:02:03;;;;;;;17.57;1.30;;;1.50;96.30;;;;;;5050944;28;20445;-73
2022/02/07 10:04:38;;;;;;;7.57;1.40;;;1.50;96.30;;;;;;5050461;28;20421;-74
2022/02/07 10:17:44;;;;;;;2.23;1.00;;;1.30;96.30;;;;;;5051361;28;20437;-72
2022/02/07 10:37:29;;;;;;;7.13;1.73;;;1.30;96.30;;;;;;5052721;28;20987;-71
2022/02/07 10:39:36;;;;;;;5.90;0.90;;;1.30;96.30;;;;;;5054130;28;20510;-70
2022/02/07 10:44:49;;;;;;;4.80;1.23;;;1.40;96.30;;;;;;5053806;28;20472;-73
2022/02/07 10:47:34;;;;;;;4.97;1.07;;;1.50;96.30;;;;;;5054278;28;20913;-71
2022/02/07 10:50:06;;;;;;;4.73;1.20;;;1.50;96.30;;;;;;5054288;28;20421;-73
2022/02/07 10:53:00;;;;;;;4.07;1.20;;;1.50;96.30;;;;;;5052100;28;20478;-73
2022/02/07 10:55:27;;;;;;;5.43;1.40;;;1.60;96.30;;;;;;5053293;28;20399;-72
2022/02/07 10:57:54;;;;;;;3.30;1.07;;;1.60;96.30;;;;;;5053495;28;20417;-72
2022/02/07 11:00:25;;;;;;;4.03;1.30;;;1.70;96.30;;;;;;5052951;28;20410;-72
2022/02/07 11:05:19;;;;;;;4.17;1.23;;;1.60;96.30;;;;;;5053136;28;20448;-74
2022/02/07 11:07:45;;;;;;;13.60;2.57;;;1.70;96.30;;;;;;5051868;28;20418;-74
2022/02/07 11:10:29;;;;;;;2.30;0.77;;;1.70;96.30;;;;;;5053363;28;20452;-74
2022/02/07 11:13:37;;;;;;;7.60;1.23;;;1.60;96.30;;;;;;5053007;28;20231;-73
2022/02/07 11:16:24;;;;;;;6.57;2.10;;;1.70;96.30;;;;;;5051601;28;20501;-73
2022/02/07 11:19:20;;;;;;;5.53;1.37;;;1.60;96.30;;;;;;5052994;28;20418;-73
2022/02/07 11:29:38;;;;;;;2.97;1.00;;;1.60;96.30;;;;;;5436879;23;20482;-70
2022/02/07 11:32:04;;;;;;;4.87;1.37;;;1.60;96.30;;;;;;5068259;28;20453;-72
2022/02/07 11:34:43;;;;;;;3.97;1.00;;;1.70;96.30;;;;;;5072839;28;20432;-70
2022/02/07 11:37:21;;;;;;;8.63;1.13;;;1.70;96.30;;;;;;5073035;28;20411;-73
2022/02/07 11:39:49;;;;;;;6.50;1.30;;;1.70;96.30;;;;;;5072723;28;20413;-70
2022/02/07 11:42:16;;;;;;;21.47;2.23;;;1.80;96.30;;;;;;5072900;28;20439;-71
2022/02/07 11:44:45;;;;;;;4.30;1.23;;;1.80;96.30;;;;;;5072363;28;20455;-74
2022/02/07 11:47:16;;;;;;;3.63;1.37;;;1.80;96.30;;;;;;5072415;28;20433;-71
2022/02/07 11:49:46;;;;;;;8.43;1.63;;;1.80;96.30;;;;;;5072875;28;20445;-71
2022/02/07 11:52:47;;;;;;;3.63;1.50;;;1.80;96.30;;;;;;5072364;28;20464;-72
2022/02/07 11:55:16;;;;;;;5.27;0.90;;;1.80;96.30;;;;;;5072082;28;20384;-71
2022/02/07 11:57:55;;;;;;;5.53;1.20;;;1.90;96.30;;;;;;5054740;28;20570;-70
2022/02/07 12:00:24;;;;;;;5.47;1.03;;;2.00;96.30;;;;;;5072431;28;20408;-71
2022/02/07 12:02:51;;;;;;;6.37;1.03;;;2.00;96.30;;;;;;5072407;28;20424;-72
2022/02/07 12:05:18;;;;;;;11.47;1.97;;;2.00;96.30;;;;;;5071917;28;20436;-72
2022/02/07 12:08:02;;;;;;;5.30;1.00;;;2.00;96.30;;;;;;5054349;28;20517;-72
2022/02/07 12:10:38;;;;;;;5.13;1.20;;;2.00;96.30;;;;;;5038864;28;20449;-72
2022/02/07 12:13:43;;;;;;;2.70;0.90;;;2.10;96.30;;;;;;5052270;28;20444;-72
2022/02/07 12:16:09;;;;;;;10.30;1.40;;;2.20;96.30;;;;;;5051257;28;20493;-72
2022/02/07 12:18:34;;;;;;;7.50;1.57;;;2.20;96.30;;;;;;5052254;28;20437;-73
2022/02/07 12:21:18;;;;;;;7.43;1.63;;;2.20;96.30;;;;;;5051880;28;20219;-72
2022/02/07 12:23:48;;;;;;;9.50;3.10;;;2.10;96.30;;;;;;5034003;28;20176;-72
2022/02/07 12:26:16;;;;;;;5.77;2.50;;;1.90;96.30;;;;;;5051366;28;20398;-72
2022/02/07 12:28:46;;;;;;;11.17;1.73;;;2.00;96.30;;;;;;5034129;28;20447;-72
2022/02/07 12:31:20;;;;;;;5.93;1.07;;;2.00;96.30;;;;;;5033733;28;21014;-73
2022/02/07 12:34:03;;;;;;;4.90;1.20;;;2.00;96.30;;;;;;5034190;28;20454;-73
2022/02/07 12:36:35;;;;;;;9.63;1.67;;;2.00;96.30;;;;;;5046382;28;20424;-74
2022/02/07 12:39:13;;;;;;;11.93;1.60;;;1.90;96.30;;;;;;5071797;28;20881;-72
2022/02/07 12:41:38;;;;;;;11.77;2.27;;;1.80;96.30;;;;;;5070000;28;20958;-73
2022/02/07 12:44:07;;;;;;;4.13;1.70;;;1.80;96.30;;;;;;5053770;28;20413;-72
2022/02/07 12:46:33;;;;;;;18.97;1.40;;;1.60;96.30;;;;;;5071078;28;20558;-72
2022/02/07 12:49:02;;;;;;;13.43;2.73;;;1.60;96.30;;;;;;5071379;28;20748;-74
2022/02/07 12:51:42;;;;;;;8.77;1.30;;;1.60;96.30;;;;;;5053614;28;20461;-72
2022/02/07 12:54:07;;;;;;;10.97;1.80;;;1.60;96.30;;;;;;5053773;28;20908;-75
2022/02/07 12:56:34;;;;;;;7.70;1.57;;;1.70;96.30;;;;;;5052677;28;20463;-72
2022/02/07 12:59:01;;;;;;;4.20;1.60;;;1.90;96.30;;;;;;5071478;28;20171;-70
2022/02/07 13:01:35;;;;;;;8.97;1.50;;;1.90;96.30;;;;;;5053516;28;20924;-70
2022/02/07 13:04:08;;;;;;;3.77;1.00;;;1.80;96.30;;;;;;5053765;28;20420;-72
2022/02/07 13:06:38;;;;;;;5.47;0.90;;;1.70;96.30;;;;;;5053097;28;20416;-71
2022/02/07 13:09:21;;;;;;;4.00;1.07;;;1.90;96.30;;;;;;5071582;28;20425;-73
2022/02/07 13:11:49;;;;;;;7.40;1.70;;;1.80;96.30;;;;;;5071022;28;20812;-74
2022/02/07 13:14:17;;;;;;;4.73;2.20;;;1.70;96.30;;;;;;5053196;28;20413;-70
2022/02/07 13:16:45;;;;;;;13.07;1.83;;;1.50;96.30;;;;;;5071216;28;20405;-74
2022/02/07 13:19:17;;;;;;;5.67;1.83;;;1.50;96.30;;;;;;5053038;28;21350;-73
2022/02/07 13:21:45;;;;;;;6.03;0.90;;;1.50;96.30;;;;;;5071429;28;20432;-75
2022/02/07 13:24:14;;;;;;;6.77;1.23;;;1.50;96.30;;;;;;5071084;28;20420;-76
2022/02/07 13:26:47;;;;;;;6.57;1.30;;;1.50;96.30;;;;;;5070435;28;20409;-75
2022/02/07 13:29:22;;;;;;;6.93;1.67;;;1.50;96.30;;;;;;5071116;28;20466;-76
2022/02/07 13:31:57;;;;;;;6.87;1.60;;;1.60;96.30;;;;;;5070787;28;20986;-76
2022/02/07 13:34:25;;;;;;;11.10;1.53;;;1.80;96.30;;;;;;5070840;28;20834;-75
2022/02/07 13:36:52;;;;;;;7.27;1.67;;;1.90;96.30;;;;;;5055020;28;20442;-76
2022/02/07 13:39:19;;;;;;;7.13;1.97;;;2.10;96.30;;;;;;5033066;28;20433;-76
2022/02/07 13:42:03;;;;;;;8.80;1.73;;;2.40;96.30;;;;;;5050909;28;20437;-75
2022/02/07 13:44:29;;;;;;;8.97;1.67;;;2.60;96.30;;;;;;5050444;28;20405;-74
2022/02/07 13:47:03;;;;;;;8.70;1.97;;;2.70;96.30;;;;;;5050967;28;20402;-76
2022/02/07 13:49:29;;;;;;;22.60;2.43;;;2.50;96.30;;;;;;5033153;28;20172;-74
2022/02/07 13:51:54;;;;;;;9.73;2.30;;;2.30;96.30;;;;;;5051015;28;20457;-76
2022/02/07 13:54:38;;;;;;;10.17;2.27;;;2.20;96.30;;;;;;5053701;28;20539;-76
2022/02/07 13:57:03;;;;;;;10.53;2.00;;;2.00;96.30;;;;;;5054672;28;20178;-76
2022/02/07 13:59:36;;;;;;;11.13;2.40;;;2.10;96.30;;;;;;5054602;28;20469;-77
2022/02/07 14:02:01;;;;;;;19.13;3.23;;;2.00;96.30;;;;;;5054468;28;20257;-76
2022/02/07 14:04:28;;;;;;;14.53;2.70;;;2.00;96.30;;;;;;5053920;28;20418;-75
2022/02/07 14:07:13;;;;;;;12.23;2.53;;;1.80;96.30;;;;;;5054527;28;20175;-76
2022/02/07 14:09:39;;;;;;;15.40;2.47;;;1.70;96.30;;;;;;5062882;28;20409;-76
2022/02/07 14:12:09;;;;;;;19.77;3.10;;;1.70;96.30;;;;;;5056202;28;20448;-75
2022/02/07 14:14:35;;;;;;;10.30;2.17;;;1.60;96.30;;;;;;5073550;28;20409;-76
2022/02/07 14:17:01;;;;;;;10.70;2.37;;;1.70;96.30;;;;;;5073947;28;20459;-75
2022/02/07 14:19:43;;;;;;;15.07;2.33;;;1.80;96.30;;;;;;5074177;28;20174;-75
2022/02/07 14:22:10;;;;;;;12.20;2.90;;;1.90;96.30;;;;;;5074301;28;20424;-75
2022/02/07 14:24:37;;;;;;;15.50;2.27;;;1.80;96.30;;;;;;5073425;28;20940;-75
2022/02/07 14:27:05;;;;;;;16.07;2.47;;;1.80;96.30;;;;;;5074213;28;20401;-75
2022/02/07 14:29:31;;;;;;;10.80;1.97;;;1.70;96.30;;;;;;5073947;28;20433;-76
2022/02/07 14:31:56;;;;;;;13.80;2.67;;;1.70;96.30;;;;;;5073713;28;20459;-76
2022/02/07 14:34:22;;;;;;;13.03;2.40;;;1.70;96.30;;;;;;5056031;28;20409;-76
2022/02/07 14:36:48;;;;;;;5.40;1.90;;;;;;;;;;5058447;28;20175;-76
2022/02/07 14:39:13;;;;;;;20.17;2.60;;;1.60;96.30;;;;;;5054440;28;20207;-74
2022/02/07 14:41:39;;;;;;;11.83;2.93;;;1.50;96.30;;;;;;5054198;28;20245;-76
2022/02/07 14:44:05;;;;;;;16.30;3.93;;;1.50;96.30;;;;;;5036611;28;20175;-76
2022/02/07 14:46:42;;;;;;;14.73;2.90;;;1.50;96.30;;;;;;5035858;28;20179;-74
2022/02/07 14:49:08;;;;;;;12.03;2.87;;;;;;;;;;5054343;28;20905;-74
2022/02/07 14:51:33;;;;;;;17.90;3.37;;;1.40;96.30;;;;;;5053999;28;20464;-74
2022/02/07 14:53:59;;;;;;;10.77;1.83;;;1.20;96.30;;;;;;5054116;28;20410;-74
2022/02/07 14:56:25;;;;;;;9.37;1.47;;;1.30;96.30;;;;;;5053465;28;20176;-74
2022/02/07 14:58:52;;;;;;;9.77;1.97;;;1.40;96.30;;;;;;5054134;28;20170;-74
2022/02/07 15:01:18;;;;;;;9.50;1.60;;;1.40;96.30;;;;;;5053901;28;20503;-74
2022/02/07 15:03:49;;;;;;;10.03;2.37;;;;;;;;;;5053478;28;20778;-74
2022/02/07 15:06:15;;;;;;;10.43;1.80;;;1.20;96.30;;;;;;5034642;28;20410;-74
2022/02/07 15:08:40;;;;;;;9.83;2.13;;;1.20;96.30;;;;;;5054676;28;20452;-74
2022/02/07 15:11:06;;;;;;;10.60;2.30;;;1.30;96.30;;;;;;5073555;28;20555;-74
2022/02/07 15:13:34;;;;;;;8.10;1.63;;;1.30;96.30;;;;;;5073847;28;20225;-74
2022/02/07 15:16:01;;;;;;;4.73;2.07;;;1.30;96.30;;;;;;5055180;28;20221;-74
2022/02/07 15:18:28;;;;;;;15.10;2.17;;;1.30;96.30;;;;;;5073614;28;20421;-74
2022/02/07 15:20:55;;;;;;;10.03;1.90;;;1.30;96.30;;;;;;5055661;28;20956;-74
2022/02/07 15:23:20;;;;;;;10.90;2.10;;;1.40;96.30;;;;;;5055650;28;20412;-74
2022/02/07 15:25:46;;;;;;;14.57;1.77;;;1.40;96.30;;;;;;5055074;28;20402;-74
2022/02/07 15:28:12;;;;;;;9.00;1.50;;;1.40;96.30;;;;;;5073502;28;20186;-74
2022/02/07 15:30:40;;;;;;;10.27;1.50;;;1.50;96.30;;;;;;5073436;28;20421;-74
2022/02/07 15:33:21;;;;;;;7.47;1.53;;;1.50;96.30;;;;;;5055266;28;20301;-74
2022/02/07 15:35:52;;;;;;;8.77;1.90;;;1.40;96.30;;;;;;5065614;28;20801;-74
2022/02/07 15:38:22;;;;;;;2.50;0.97;;;1.40;96.30;;;;;;5035418;28;20433;-74
2022/02/07 15:40:48;;;;;;;10.90;2.50;;;1.50;96.30;;;;;;5053204;28;20521;-74
2022/02/07 15:43:14;;;;;;;9.73;1.40;;;1.40;96.30;;;;;;5053204;28;20548;-74
2022/02/07 15:45:39;;;;;;;4.20;0.87;;;1.30;96.30;;;;;;5052606;28;20576;-74
2022/02/07 15:48:05;;;;;;;10.10;1.20;;;1.20;96.30;;;;;;5035263;28;20189;-74
2022/02/07 15:50:31;;;;;;;5.70;0.90;;;1.10;96.30;;;;;;5035233;28;20187;-74
2022/02/07 15:52:59;;;;;;;10.70;1.53;;;1.10;96.30;;;;;;5052995;28;20203;-74
2022/02/07 15:55:27;;;;;;;7.27;2.00;;;0.90;96.30;;;;;;5052416;28;20406;-74
2022/02/07 15:57:52;;;;;;;4.80;1.03;;;0.90;96.30;;;;;;5052887;28;20410;-74
2022/02/07 16:00:18;;;;;;;3.23;1.20;;;0.90;96.30;;;;;;5052965;28;20406;-74
2022/02/07 16:02:50;;;;;;;6.50;1.20;;;0.90;96.30;;;;;;5035049;28;20189;-74
2022/02/07 16:05:20;;;;;;;4.13;1.13;;;0.90;96.30;;;;;;5052482;28;20172;-74
2022/02/07 16:07:47;;;;;;;4.93;0.90;;;0.90;96.30;;;;;;5052795;28;20438;-74
2022/02/07 16:10:13;;;;;;;7.70;1.67;;;0.90;96.30;;;;;;5065944;28;20421;-74
2022/02/07 16:12:40;;;;;;;4.43;1.70;;;0.90;96.30;;;;;;5072735;28;20488;-74
2022/02/07 16:15:06;;;;;;;10.43;0.90;;;1.00;96.30;;;;;;5072042;28;20855;-74
2022/02/07 16:17:31;;;;;;;4.93;1.07;;;0.90;96.30;;;;;;5054504;28;20463;-74
2022/02/07 16:19:56;;;;;;;6.00;0.97;;;0.90;96.30;;;;;;5054751;28;20425;-74
2022/02/07 16:22:22;;;;;;;12.30;2.40;;;0.90;96.30;;;;;;5072441;28;20705;-74
2022/02/07 16:24:48;;;;;;;5.60;1.77;;;0.90;96.30;;;;;;5053933;28;20195;-74
2022/02/07 16:27:13;;;;;;;4.93;1.03;;;0.90;96.30;;;;;;5072470;28;20174;-74
2022/02/07 16:29:42;;;;;;;7.87;1.00;;;0.90;96.30;;;;;;5072337;28;20197;-74
2022/02/07 16:32:07;;;;;;;6.90;2.30;;;1.00;96.30;;;;;;5072174;28;20286;-74
2022/02/07 16:34:33;;;;;;;5.07;1.53;;;1.00;96.30;;;;;;5053814;28;20998;-74
2022/02/07 16:36:59;;;;;;;4.70;1.50;;;;;;;;;;5055066;28;20174;-74
2022/02/07 16:39:25;;;;;;;6.73;1.30;;;1.00;96.30;;;;;;5052287;28;20171;-74
2022/02/07 16:41:51;;;;;;;4.30;1.60;;;1.10;96.30;;;;;;5034501;28;20430;-74
2022/02/07 16:44:18;;;;;;;2.60;1.00;;;1.00;96.30;;;;;;5051694;28;20176;-74
2022/02/07 16:46:50;;;;;;;6.70;1.20;;;1.00;96.30;;;;;;5051628;28;20739;-74
2022/02/07 16:49:27;;;;;;;5.87;1.20;;;1.10;96.30;;;;;;5052108;28;20427;-74
2022/02/07 16:51:55;;;;;;;7.63;1.43;;;1.00;96.30;;;;;;5051894;28;20453;-74
2022/02/07 16:54:21;;;;;;;7.90;1.00;;;1.10;96.30;;;;;;5051516;28;20430;-74
2022/02/07 16:56:48;;;;;;;14.90;1.97;;;1.00;96.30;;;;;;5051335;28;20441;-74
2022/02/07 16:59:15;;;;;;;6.80;1.33;;;1.10;96.30;;;;;;5044198;28;20248;-74
2022/02/07 17:01:49;;;;;;;13.10;2.10;;;1.10;96.30;;;;;;5042678;28;20440;-73
2022/02/07 17:04:15;;;;;;;11.20;2.10;;;;;;;;;;5034054;28;20471;-74
2022/02/07 17:06:41;;;;;;;2.93;1.10;;;1.00;96.30;;;;;;5059719;28;20422;-74
2022/02/07 17:09:07;;;;;;;9.67;1.70;;;1.00;96.30;;;;;;5033832;28;20432;-74
2022/02/07 17:11:32;;;;;;;12.90;2.00;;;1.00;96.30;;;;;;5069926;28;20210;-74
2022/02/07 17:13:58;;;;;;;9.53;2.10;;;1.00;96.30;;;;;;5071752;28;20631;-74
2022/02/07 17:16:24;;;;;;;6.23;1.70;;;;;;;;;;5073759;28;20175;-72
2022/02/07 17:18:50;;;;;;;12.23;2.10;;;1.10;96.30;;;;;;5060627;28;20247;-73
2022/02/07 17:26:31;;;;;;;14.20;2.27;;;1.10;96.30;;;;;;5381207;23;20996;-73
2022/02/07 17:28:58;;;;;;;11.13;1.47;;;1.10;96.30;;;;;;5033790;28;20928;-73
2022/02/07 17:31:23;;;;;;;11.13;2.37;;;1.20;96.30;;;;;;5035426;28;20458;-73
2022/02/07 17:33:49;;;;;;;6.10;1.83;;;1.20;96.30;;;;;;5035707;28;20506;-75
2022/02/07 17:36:14;;;;;;;5.97;1.97;;;1.20;96.30;;;;;;5028547;28;20531;-75
2022/02/07 17:38:40;;;;;;;7.90;2.00;;;1.20;96.30;;;;;;5044125;28;20206;-73
2022/02/07 17:41:10;;;;;;;10.93;2.30;;;1.20;96.30;;;;;;5035542;28;20562;-76
2022/02/07 17:43:43;;;;;;;11.50;1.77;;;1.20;96.30;;;;;;5017679;28;20176;-76
2022/02/07 17:46:11;;;;;;;14.73;1.83;;;1.20;96.30;;;;;;5035123;28;20419;-76
2022/02/07 17:48:37;;;;;;;5.47;1.20;;;1.20;96.30;;;;;;5017239;28;20505;-75
2022/02/07 17:51:03;;;;;;;5.53;1.23;;;1.20;96.30;;;;;;5034310;28;20457;-76
2022/02/07 17:53:30;;;;;;;8.20;1.63;;;1.10;96.30;;;;;;5034772;28;20477;-76
2022/02/07 17:55:58;;;;;;;9.63;1.40;;;1.00;96.30;;;;;;5034747;28;20786;-76
2022/02/07 17:58:26;;;;;;;7.40;1.63;;;1.10;96.30;;;;;;5035312;28;20411;-76
2022/02/07 18:00:52;;;;;;;8.50;2.03;;;1.00;96.30;;;;;;5017278;28;20800;-76
2022/02/07 18:03:19;;;;;;;4.47;1.10;;;1.10;96.30;;;;;;5035077;28;20410;-77
2022/02/07 18:05:46;;;;;;;5.60;1.43;;;1.10;96.30;;;;;;5016840;28;20936;-76
2022/02/07 18:08:13;;;;;;;5.70;1.80;;;1.00;96.30;;;;;;5035323;28;20426;-77
2022/02/07 18:10:39;;;;;;;10.27;1.80;;;1.00;96.30;;;;;;5033939;28;20575;-77
2022/02/07 18:13:05;;;;;;;10.00;1.77;;;1.00;96.30;;;;;;5054879;28;20457;-77
2022/02/07 18:15:31;;;;;;;3.70;1.40;;;;;;;;;;5035159;28;20472;-74
2022/02/07 18:17:57;;;;;;;3.93;1.03;;;1.00;96.30;;;;;;5016694;28;20493;-72
2022/02/07 18:20:26;;;;;;;6.20;1.20;;;0.90;96.30;;;;;;5034672;28;20553;-72
2022/02/07 18:22:54;;;;;;;7.53;1.73;;;0.90;96.30;;;;;;5035182;28;20457;-72
2022/02/07 18:25:26;;;;;;;9.70;1.30;;;0.90;96.30;;;;;;5034177;28;20434;-72